Bear River, Canada
Current Conditions -  °F | °C
As of 12:00 PM on Monday 22 Dec 2014 (Local Time) from CYZX Reporting Station
Overcast Overcast  
Wind Chill: 32°   Ceiling: 2200
Heat Index: 32°   Visibility: 15mi
Dew Point: 25°   Wind: 3mph
Humidity: 75%   Direction: 90°E
Pressure: 30.46"   Gusts: NA
Location:  44.57°N, 65.63°W
Report Text: CYZX 221600Z 09003KT 15SM OVC022 M00/M04 A3046 RMK SC8 WNDY HILL 11005KT SLP318
Loading
Personal Weather Stations






























Interactive Weather Map New forecast layout! Learn more

10-Day Weather Forecast

Advertisements
Track Severe Weather on mobile